sensor_id;sensor_type;location;lat;lon;timestamp;P1;durP1;ratioP1;P2;durP2;ratioP2
73557;SDS011;61829;53.286;10.434;2023-12-07T00:01:15;36.00;;;14.50;;
73557;SDS011;61829;53.286;10.434;2023-12-07T00:03:41;39.17;;;14.32;;
73557;SDS011;61829;53.286;10.434;2023-12-07T00:06:07;34.95;;;13.52;;
73557;SDS011;61829;53.286;10.434;2023-12-07T00:08:33;38.22;;;14.65;;
73557;SDS011;61829;53.286;10.434;2023-12-07T00:10:59;39.45;;;14.27;;
73557;SDS011;61829;53.286;10.434;2023-12-07T00:13:25;39.70;;;15.35;;
73557;SDS011;61829;53.286;10.434;2023-12-07T00:15:51;40.70;;;14.00;;
73557;SDS011;61829;53.286;10.434;2023-12-07T00:18:18;37.42;;;13.43;;
73557;SDS011;61829;53.286;10.434;2023-12-07T00:20:45;39.65;;;14.88;;
73557;SDS011;61829;53.286;10.434;2023-12-07T00:23:11;40.53;;;15.48;;
73557;SDS011;61829;53.286;10.434;2023-12-07T00:25:37;42.58;;;15.07;;
73557;SDS011;61829;53.286;10.434;2023-12-07T00:28:03;38.90;;;14.55;;
73557;SDS011;61829;53.286;10.434;2023-12-07T00:30:31;42.80;;;16.60;;
73557;SDS011;61829;53.286;10.434;2023-12-07T00:32:57;37.35;;;14.73;;
73557;SDS011;61829;53.286;10.434;2023-12-07T00:35:23;36.97;;;15.35;;
73557;SDS011;61829;53.286;10.434;2023-12-07T00:37:49;39.80;;;15.88;;
73557;SDS011;61829;53.286;10.434;2023-12-07T00:40:16;40.92;;;15.90;;
73557;SDS011;61829;53.286;10.434;2023-12-07T00:42:41;50.65;;;16.40;;
73557;SDS011;61829;53.286;10.434;2023-12-07T00:45:09;43.10;;;16.27;;
73557;SDS011;61829;53.286;10.434;2023-12-07T00:47:36;41.05;;;16.02;;
73557;SDS011;61829;53.286;10.434;2023-12-07T00:50:03;39.30;;;15.68;;
73557;SDS011;61829;53.286;10.434;2023-12-07T00:52:29;38.97;;;15.23;;
73557;SDS011;61829;53.286;10.434;2023-12-07T00:54:55;40.63;;;13.98;;
73557;SDS011;61829;53.286;10.434;2023-12-07T00:57:21;41.58;;;14.07;;
73557;SDS011;61829;53.286;10.434;2023-12-07T00:59:47;37.97;;;14.68;;
73557;SDS011;61829;53.286;10.434;2023-12-07T01:02:13;38.78;;;15.27;;
73557;SDS011;61829;53.286;10.434;2023-12-07T01:04:40;46.40;;;14.75;;
73557;SDS011;61829;53.286;10.434;2023-12-07T01:07:06;37.00;;;14.75;;
73557;SDS011;61829;53.286;10.434;2023-12-07T01:09:33;38.60;;;14.57;;
73557;SDS011;61829;53.286;10.434;2023-12-07T01:11:58;39.20;;;15.00;;
73557;SDS011;61829;53.286;10.434;2023-12-07T01:14:25;42.63;;;14.63;;
73557;SDS011;61829;53.286;10.434;2023-12-07T01:16:51;42.75;;;15.18;;
73557;SDS011;61829;53.286;10.434;2023-12-07T01:19:18;41.83;;;15.10;;
73557;SDS011;61829;53.286;10.434;2023-12-07T01:21:44;44.20;;;16.65;;
73557;SDS011;61829;53.286;10.434;2023-12-07T01:24:10;39.72;;;14.48;;
73557;SDS011;61829;53.286;10.434;2023-12-07T01:26:36;38.00;;;14.43;;
73557;SDS011;61829;53.286;10.434;2023-12-07T01:29:02;39.53;;;15.18;;
73557;SDS011;61829;53.286;10.434;2023-12-07T01:31:28;35.85;;;15.00;;
73557;SDS011;61829;53.286;10.434;2023-12-07T01:33:55;37.83;;;14.85;;
73557;SDS011;61829;53.286;10.434;2023-12-07T01:36:22;39.17;;;15.10;;
73557;SDS011;61829;53.286;10.434;2023-12-07T01:38:48;39.13;;;13.85;;
73557;SDS011;61829;53.286;10.434;2023-12-07T01:41:14;39.22;;;14.65;;
73557;SDS011;61829;53.286;10.434;2023-12-07T01:43:46;48.10;;;15.32;;
73557;SDS011;61829;53.286;10.434;2023-12-07T01:46:13;41.70;;;15.40;;
73557;SDS011;61829;53.286;10.434;2023-12-07T01:48:42;37.42;;;15.60;;
73557;SDS011;61829;53.286;10.434;2023-12-07T01:51:09;40.42;;;13.43;;
73557;SDS011;61829;53.286;10.434;2023-12-07T01:53:38;36.58;;;14.85;;
73557;SDS011;61829;53.286;10.434;2023-12-07T01:56:05;42.95;;;15.45;;
73557;SDS011;61829;53.286;10.434;2023-12-07T01:58:35;38.22;;;14.55;;
73557;SDS011;61829;53.286;10.434;2023-12-07T02:01:02;42.47;;;15.27;;
73557;SDS011;61829;53.286;10.434;2023-12-07T02:03:29;36.08;;;13.90;;
73557;SDS011;61829;53.286;10.434;2023-12-07T02:05:57;43.22;;;14.48;;
73557;SDS011;61829;53.286;10.434;2023-12-07T02:08:24;39.15;;;15.65;;
73557;SDS011;61829;53.286;10.434;2023-12-07T02:10:50;38.55;;;15.57;;
73557;SDS011;61829;53.286;10.434;2023-12-07T02:13:19;37.45;;;15.07;;
73557;SDS011;61829;53.286;10.434;2023-12-07T02:15:57;38.65;;;13.98;;
73557;SDS011;61829;53.286;10.434;2023-12-07T02:21:13;40.75;;;15.27;;
73557;SDS011;61829;53.286;10.434;2023-12-07T02:23:52;35.83;;;14.60;;
73557;SDS011;61829;53.286;10.434;2023-12-07T02:26:20;38.70;;;14.20;;
73557;SDS011;61829;53.286;10.434;2023-12-07T02:28:47;37.55;;;15.30;;
73557;SDS011;61829;53.286;10.434;2023-12-07T02:31:13;36.65;;;14.07;;
73557;SDS011;61829;53.286;10.434;2023-12-07T02:33:40;40.22;;;16.40;;
73557;SDS011;61829;53.286;10.434;2023-12-07T02:36:05;41.08;;;16.23;;
73557;SDS011;61829;53.286;10.434;2023-12-07T02:38:32;41.85;;;15.05;;
73557;SDS011;61829;53.286;10.434;2023-12-07T02:40:59;42.05;;;16.05;;
73557;SDS011;61829;53.286;10.434;2023-12-07T02:43:27;48.28;;;16.60;;
73557;SDS011;61829;53.286;10.434;2023-12-07T02:45:56;44.88;;;15.43;;
73557;SDS011;61829;53.286;10.434;2023-12-07T02:48:22;48.90;;;16.88;;
73557;SDS011;61829;53.286;10.434;2023-12-07T02:54:30;41.17;;;14.57;;
73557;SDS011;61829;53.286;10.434;2023-12-07T02:56:58;48.40;;;17.15;;
73557;SDS011;61829;53.286;10.434;2023-12-07T02:59:24;50.22;;;17.27;;
73557;SDS011;61829;53.286;10.434;2023-12-07T03:01:50;43.15;;;15.82;;
73557;SDS011;61829;53.286;10.434;2023-12-07T03:04:16;43.65;;;15.90;;
73557;SDS011;61829;53.286;10.434;2023-12-07T03:06:42;44.88;;;15.93;;
73557;SDS011;61829;53.286;10.434;2023-12-07T03:09:08;51.83;;;17.20;;
73557;SDS011;61829;53.286;10.434;2023-12-07T03:11:34;48.13;;;17.48;;
73557;SDS011;61829;53.286;10.434;2023-12-07T03:14:00;54.60;;;16.92;;
73557;SDS011;61829;53.286;10.434;2023-12-07T03:16:26;45.55;;;16.55;;
73557;SDS011;61829;53.286;10.434;2023-12-07T03:18:52;50.15;;;15.98;;
73557;SDS011;61829;53.286;10.434;2023-12-07T03:21:19;54.20;;;17.02;;
73557;SDS011;61829;53.286;10.434;2023-12-07T03:23:45;54.67;;;16.42;;
73557;SDS011;61829;53.286;10.434;2023-12-07T03:26:11;51.88;;;16.52;;
73557;SDS011;61829;53.286;10.434;2023-12-07T03:28:37;57.10;;;16.58;;
73557;SDS011;61829;53.286;10.434;2023-12-07T03:31:13;51.33;;;17.45;;
73557;SDS011;61829;53.286;10.434;2023-12-07T03:33:44;46.17;;;15.10;;
73557;SDS011;61829;53.286;10.434;2023-12-07T03:36:13;58.17;;;16.50;;
73557;SDS011;61829;53.286;10.434;2023-12-07T03:38:39;56.40;;;17.42;;
73557;SDS011;61829;53.286;10.434;2023-12-07T03:41:05;59.30;;;15.95;;
73557;SDS011;61829;53.286;10.434;2023-12-07T03:43:31;61.70;;;17.77;;
73557;SDS011;61829;53.286;10.434;2023-12-07T03:45:57;58.45;;;15.10;;
73557;SDS011;61829;53.286;10.434;2023-12-07T03:48:23;57.78;;;16.17;;
73557;SDS011;61829;53.286;10.434;2023-12-07T03:50:49;52.17;;;15.45;;
73557;SDS011;61829;53.286;10.434;2023-12-07T03:53:15;54.60;;;16.67;;
73557;SDS011;61829;53.286;10.434;2023-12-07T03:55:41;64.72;;;16.90;;
73557;SDS011;61829;53.286;10.434;2023-12-07T03:58:07;56.20;;;16.45;;
73557;SDS011;61829;53.286;10.434;2023-12-07T04:00:33;62.53;;;16.23;;
73557;SDS011;61829;53.286;10.434;2023-12-07T04:02:59;59.67;;;17.17;;
73557;SDS011;61829;53.286;10.434;2023-12-07T04:09:15;52.88;;;14.98;;
73557;SDS011;61829;53.286;10.434;2023-12-07T04:11:41;57.35;;;16.52;;
73557;SDS011;61829;53.286;10.434;2023-12-07T04:14:07;60.35;;;16.13;;
73557;SDS011;61829;53.286;10.434;2023-12-07T04:16:33;54.58;;;16.42;;
73557;SDS011;61829;53.286;10.434;2023-12-07T04:18:59;55.58;;;15.98;;
73557;SDS011;61829;53.286;10.434;2023-12-07T04:21:25;59.00;;;15.93;;
73557;SDS011;61829;53.286;10.434;2023-12-07T04:23:52;54.25;;;16.50;;
73557;SDS011;61829;53.286;10.434;2023-12-07T04:26:18;60.95;;;16.20;;
73557;SDS011;61829;53.286;10.434;2023-12-07T04:28:44;55.38;;;14.98;;
73557;SDS011;61829;53.286;10.434;2023-12-07T04:31:10;57.70;;;18.05;;
73557;SDS011;61829;53.286;10.434;2023-12-07T04:33:36;51.97;;;16.52;;
73557;SDS011;61829;53.286;10.434;2023-12-07T04:36:02;50.08;;;15.57;;
73557;SDS011;61829;53.286;10.434;2023-12-07T04:38:30;58.00;;;17.90;;
73557;SDS011;61829;53.286;10.434;2023-12-07T04:43:23;53.70;;;15.20;;
73557;SDS011;61829;53.286;10.434;2023-12-07T04:45:49;53.17;;;16.85;;
73557;SDS011;61829;53.286;10.434;2023-12-07T04:48:16;45.85;;;15.57;;
73557;SDS011;61829;53.286;10.434;2023-12-07T04:50:42;56.17;;;18.55;;
73557;SDS011;61829;53.286;10.434;2023-12-07T04:53:11;62.60;;;16.40;;
73557;SDS011;61829;53.286;10.434;2023-12-07T04:55:37;52.50;;;17.73;;
73557;SDS011;61829;53.286;10.434;2023-12-07T04:58:03;55.75;;;17.58;;
73557;SDS011;61829;53.286;10.434;2023-12-07T05:00:29;55.40;;;17.48;;
73557;SDS011;61829;53.286;10.434;2023-12-07T05:02:55;54.95;;;16.38;;
73557;SDS011;61829;53.286;10.434;2023-12-07T05:05:21;46.17;;;15.98;;
73557;SDS011;61829;53.286;10.434;2023-12-07T05:07:47;53.55;;;17.30;;
73557;SDS011;61829;53.286;10.434;2023-12-07T05:10:13;51.50;;;17.55;;
73557;SDS011;61829;53.286;10.434;2023-12-07T05:12:44;55.15;;;16.58;;
73557;SDS011;61829;53.286;10.434;2023-12-07T05:15:09;47.97;;;15.52;;
73557;SDS011;61829;53.286;10.434;2023-12-07T05:17:35;46.55;;;16.17;;
73557;SDS011;61829;53.286;10.434;2023-12-07T05:20:02;58.15;;;18.23;;
73557;SDS011;61829;53.286;10.434;2023-12-07T05:22:28;55.35;;;17.48;;
73557;SDS011;61829;53.286;10.434;2023-12-07T05:24:54;53.88;;;18.58;;
73557;SDS011;61829;53.286;10.434;2023-12-07T05:27:20;49.25;;;17.67;;
73557;SDS011;61829;53.286;10.434;2023-12-07T05:29:46;45.63;;;16.02;;
73557;SDS011;61829;53.286;10.434;2023-12-07T05:32:12;47.88;;;16.45;;
73557;SDS011;61829;53.286;10.434;2023-12-07T05:34:38;46.30;;;16.83;;
73557;SDS011;61829;53.286;10.434;2023-12-07T05:37:05;46.45;;;16.65;;
73557;SDS011;61829;53.286;10.434;2023-12-07T05:42:32;50.95;;;19.13;;
73557;SDS011;61829;53.286;10.434;2023-12-07T05:44:58;49.10;;;16.98;;
73557;SDS011;61829;53.286;10.434;2023-12-07T05:47:26;53.38;;;17.33;;
73557;SDS011;61829;53.286;10.434;2023-12-07T05:49:55;48.97;;;17.67;;
73557;SDS011;61829;53.286;10.434;2023-12-07T05:52:23;50.08;;;17.52;;
73557;SDS011;61829;53.286;10.434;2023-12-07T05:54:49;42.45;;;16.83;;
73557;SDS011;61829;53.286;10.434;2023-12-07T05:57:15;46.97;;;17.75;;
73557;SDS011;61829;53.286;10.434;2023-12-07T05:59:41;44.63;;;17.30;;
73557;SDS011;61829;53.286;10.434;2023-12-07T06:02:09;40.92;;;16.45;;
73557;SDS011;61829;53.286;10.434;2023-12-07T06:04:34;48.63;;;17.15;;
73557;SDS011;61829;53.286;10.434;2023-12-07T06:07:00;45.63;;;17.42;;
73557;SDS011;61829;53.286;10.434;2023-12-07T06:09:27;41.78;;;16.90;;
73557;SDS011;61829;53.286;10.434;2023-12-07T06:11:55;43.08;;;16.17;;
73557;SDS011;61829;53.286;10.434;2023-12-07T06:14:21;46.35;;;17.45;;
73557;SDS011;61829;53.286;10.434;2023-12-07T06:16:49;49.72;;;18.35;;
73557;SDS011;61829;53.286;10.434;2023-12-07T06:19:14;43.25;;;17.70;;
73557;SDS011;61829;53.286;10.434;2023-12-07T06:21:41;44.83;;;17.52;;
73557;SDS011;61829;53.286;10.434;2023-12-07T06:24:09;44.83;;;17.63;;
73557;SDS011;61829;53.286;10.434;2023-12-07T06:26:35;46.35;;;17.75;;
73557;SDS011;61829;53.286;10.434;2023-12-07T06:29:02;46.83;;;18.15;;
73557;SDS011;61829;53.286;10.434;2023-12-07T06:31:29;51.40;;;17.75;;
73557;SDS011;61829;53.286;10.434;2023-12-07T06:33:55;58.85;;;18.70;;
73557;SDS011;61829;53.286;10.434;2023-12-07T06:36:21;51.35;;;18.65;;
73557;SDS011;61829;53.286;10.434;2023-12-07T06:38:49;51.83;;;18.00;;
73557;SDS011;61829;53.286;10.434;2023-12-07T06:41:15;56.10;;;18.88;;
73557;SDS011;61829;53.286;10.434;2023-12-07T06:43:41;52.70;;;17.88;;
73557;SDS011;61829;53.286;10.434;2023-12-07T06:46:13;53.88;;;18.15;;
73557;SDS011;61829;53.286;10.434;2023-12-07T06:48:39;51.20;;;18.42;;
73557;SDS011;61829;53.286;10.434;2023-12-07T06:53:32;52.00;;;16.77;;
73557;SDS011;61829;53.286;10.434;2023-12-07T06:59:11;49.40;;;17.67;;
73557;SDS011;61829;53.286;10.434;2023-12-07T07:01:38;55.88;;;18.33;;
73557;SDS011;61829;53.286;10.434;2023-12-07T07:04:04;54.78;;;18.35;;
73557;SDS011;61829;53.286;10.434;2023-12-07T07:06:30;56.03;;;18.88;;
73557;SDS011;61829;53.286;10.434;2023-12-07T07:08:56;45.78;;;18.02;;
73557;SDS011;61829;53.286;10.434;2023-12-07T07:11:22;50.55;;;17.42;;
73557;SDS011;61829;53.286;10.434;2023-12-07T07:16:34;49.53;;;16.98;;
73557;SDS011;61829;53.286;10.434;2023-12-07T07:19:00;48.85;;;17.20;;
73557;SDS011;61829;53.286;10.434;2023-12-07T07:21:26;47.05;;;18.13;;
73557;SDS011;61829;53.286;10.434;2023-12-07T07:23:52;47.10;;;17.08;;
73557;SDS011;61829;53.286;10.434;2023-12-07T07:26:18;47.40;;;16.55;;
73557;SDS011;61829;53.286;10.434;2023-12-07T07:32:04;43.53;;;16.30;;
73557;SDS011;61829;53.286;10.434;2023-12-07T07:34:31;48.53;;;17.60;;
73557;SDS011;61829;53.286;10.434;2023-12-07T07:36:57;47.03;;;16.73;;
73557;SDS011;61829;53.286;10.434;2023-12-07T07:39:23;53.22;;;18.45;;
73557;SDS011;61829;53.286;10.434;2023-12-07T07:41:49;49.28;;;17.02;;
73557;SDS011;61829;53.286;10.434;2023-12-07T07:44:15;46.28;;;17.50;;
73557;SDS011;61829;53.286;10.434;2023-12-07T07:46:42;50.90;;;17.88;;
73557;SDS011;61829;53.286;10.434;2023-12-07T07:49:11;52.03;;;17.77;;
73557;SDS011;61829;53.286;10.434;2023-12-07T07:51:37;48.30;;;17.80;;
73557;SDS011;61829;53.286;10.434;2023-12-07T07:54:04;52.75;;;18.60;;
73557;SDS011;61829;53.286;10.434;2023-12-07T07:56:30;44.58;;;17.63;;
73557;SDS011;61829;53.286;10.434;2023-12-07T07:58:56;47.75;;;18.65;;
73557;SDS011;61829;53.286;10.434;2023-12-07T08:01:25;52.72;;;17.77;;
73557;SDS011;61829;53.286;10.434;2023-12-07T08:03:51;41.90;;;15.90;;
73557;SDS011;61829;53.286;10.434;2023-12-07T08:06:18;47.53;;;17.65;;
73557;SDS011;61829;53.286;10.434;2023-12-07T08:08:44;38.85;;;15.07;;
73557;SDS011;61829;53.286;10.434;2023-12-07T08:11:10;45.63;;;17.52;;
73557;SDS011;61829;53.286;10.434;2023-12-07T08:13:36;44.08;;;16.48;;
73557;SDS011;61829;53.286;10.434;2023-12-07T08:16:03;43.10;;;16.83;;
73557;SDS011;61829;53.286;10.434;2023-12-07T08:18:33;42.78;;;17.02;;
73557;SDS011;61829;53.286;10.434;2023-12-07T08:20:59;39.35;;;16.45;;
73557;SDS011;61829;53.286;10.434;2023-12-07T08:23:25;41.92;;;15.73;;
73557;SDS011;61829;53.286;10.434;2023-12-07T08:25:51;45.00;;;17.88;;
73557;SDS011;61829;53.286;10.434;2023-12-07T08:28:20;41.75;;;16.48;;
73557;SDS011;61829;53.286;10.434;2023-12-07T08:30:46;43.22;;;16.98;;
73557;SDS011;61829;53.286;10.434;2023-12-07T08:33:12;38.70;;;16.10;;
73557;SDS011;61829;53.286;10.434;2023-12-07T08:35:39;44.25;;;17.25;;
73557;SDS011;61829;53.286;10.434;2023-12-07T08:38:15;38.88;;;16.33;;
73557;SDS011;61829;53.286;10.434;2023-12-07T08:40:42;39.20;;;16.65;;
73557;SDS011;61829;53.286;10.434;2023-12-07T08:43:08;47.80;;;18.02;;
73557;SDS011;61829;53.286;10.434;2023-12-07T08:45:39;41.72;;;16.15;;
73557;SDS011;61829;53.286;10.434;2023-12-07T08:48:06;46.28;;;18.63;;
73557;SDS011;61829;53.286;10.434;2023-12-07T08:50:32;45.05;;;17.20;;
73557;SDS011;61829;53.286;10.434;2023-12-07T08:52:58;46.28;;;17.70;;
73557;SDS011;61829;53.286;10.434;2023-12-07T08:55:24;49.47;;;18.58;;
73557;SDS011;61829;53.286;10.434;2023-12-07T08:57:50;46.63;;;17.95;;
73557;SDS011;61829;53.286;10.434;2023-12-07T09:00:18;49.92;;;19.42;;
73557;SDS011;61829;53.286;10.434;2023-12-07T09:02:49;48.38;;;19.05;;
73557;SDS011;61829;53.286;10.434;2023-12-07T09:05:16;46.83;;;17.63;;
73557;SDS011;61829;53.286;10.434;2023-12-07T09:07:42;43.75;;;19.00;;
73557;SDS011;61829;53.286;10.434;2023-12-07T09:10:09;44.90;;;18.85;;
73557;SDS011;61829;53.286;10.434;2023-12-07T09:12:36;43.08;;;16.80;;
73557;SDS011;61829;53.286;10.434;2023-12-07T09:15:15;50.53;;;18.02;;
73557;SDS011;61829;53.286;10.434;2023-12-07T09:17:42;43.22;;;17.23;;
73557;SDS011;61829;53.286;10.434;2023-12-07T09:20:09;48.22;;;18.55;;
73557;SDS011;61829;53.286;10.434;2023-12-07T09:22:46;44.83;;;18.88;;
73557;SDS011;61829;53.286;10.434;2023-12-07T09:25:17;48.15;;;18.88;;
73557;SDS011;61829;53.286;10.434;2023-12-07T09:27:43;49.65;;;21.25;;
73557;SDS011;61829;53.286;10.434;2023-12-07T09:30:10;45.67;;;19.60;;
73557;SDS011;61829;53.286;10.434;2023-12-07T09:32:37;46.88;;;18.20;;
73557;SDS011;61829;53.286;10.434;2023-12-07T09:35:04;44.28;;;19.50;;
73557;SDS011;61829;53.286;10.434;2023-12-07T09:37:32;46.42;;;19.17;;
73557;SDS011;61829;53.286;10.434;2023-12-07T09:40:01;48.33;;;19.50;;
73557;SDS011;61829;53.286;10.434;2023-12-07T09:42:35;45.42;;;19.73;;
73557;SDS011;61829;53.286;10.434;2023-12-07T09:45:01;46.33;;;19.42;;
73557;SDS011;61829;53.286;10.434;2023-12-07T09:47:28;44.53;;;19.13;;
73557;SDS011;61829;53.286;10.434;2023-12-07T09:49:57;44.92;;;18.50;;
73557;SDS011;61829;53.286;10.434;2023-12-07T09:52:24;44.22;;;18.92;;
73557;SDS011;61829;53.286;10.434;2023-12-07T09:54:52;41.85;;;17.48;;
73557;SDS011;61829;53.286;10.434;2023-12-07T09:57:21;47.97;;;19.45;;
73557;SDS011;61829;53.286;10.434;2023-12-07T10:04:14;39.90;;;16.02;;
73557;SDS011;61829;53.286;10.434;2023-12-07T10:06:50;42.45;;;18.05;;
73557;SDS011;61829;53.286;10.434;2023-12-07T10:09:26;47.17;;;19.77;;
73557;SDS011;61829;53.286;10.434;2023-12-07T10:12:02;45.80;;;18.30;;
73557;SDS011;61829;53.286;10.434;2023-12-07T10:14:29;45.78;;;17.95;;
73557;SDS011;61829;53.286;10.434;2023-12-07T10:16:55;37.05;;;17.05;;
73557;SDS011;61829;53.286;10.434;2023-12-07T10:19:22;40.90;;;16.52;;
73557;SDS011;61829;53.286;10.434;2023-12-07T10:21:50;44.92;;;18.27;;
73557;SDS011;61829;53.286;10.434;2023-12-07T10:24:17;45.25;;;18.48;;
73557;SDS011;61829;53.286;10.434;2023-12-07T10:26:45;44.15;;;18.30;;
73557;SDS011;61829;53.286;10.434;2023-12-07T10:29:12;44.47;;;18.80;;
73557;SDS011;61829;53.286;10.434;2023-12-07T10:31:38;46.08;;;20.17;;
73557;SDS011;61829;53.286;10.434;2023-12-07T10:34:13;41.88;;;17.88;;
73557;SDS011;61829;53.286;10.434;2023-12-07T10:36:51;46.47;;;19.05;;
73557;SDS011;61829;53.286;10.434;2023-12-07T10:39:18;41.65;;;17.67;;
73557;SDS011;61829;53.286;10.434;2023-12-07T10:41:46;43.47;;;18.67;;
73557;SDS011;61829;53.286;10.434;2023-12-07T10:44:13;43.47;;;17.83;;
73557;SDS011;61829;53.286;10.434;2023-12-07T10:46:42;42.35;;;18.52;;
73557;SDS011;61829;53.286;10.434;2023-12-07T10:49:10;44.45;;;18.10;;
73557;SDS011;61829;53.286;10.434;2023-12-07T10:51:43;41.00;;;17.88;;
73557;SDS011;61829;53.286;10.434;2023-12-07T10:54:16;44.15;;;18.52;;
73557;SDS011;61829;53.286;10.434;2023-12-07T10:56:48;42.47;;;17.75;;
73557;SDS011;61829;53.286;10.434;2023-12-07T10:59:15;41.60;;;17.50;;
73557;SDS011;61829;53.286;10.434;2023-12-07T11:01:42;42.63;;;17.20;;
73557;SDS011;61829;53.286;10.434;2023-12-07T11:04:12;40.95;;;17.17;;
73557;SDS011;61829;53.286;10.434;2023-12-07T11:06:51;38.63;;;18.45;;
73557;SDS011;61829;53.286;10.434;2023-12-07T11:09:22;43.65;;;18.60;;
73557;SDS011;61829;53.286;10.434;2023-12-07T11:14:36;34.17;;;16.05;;
73557;SDS011;61829;53.286;10.434;2023-12-07T11:17:04;41.92;;;18.65;;
73557;SDS011;61829;53.286;10.434;2023-12-07T11:22:03;43.13;;;17.73;;
73557;SDS011;61829;53.286;10.434;2023-12-07T11:24:31;34.42;;;16.95;;
73557;SDS011;61829;53.286;10.434;2023-12-07T11:26:57;36.90;;;16.92;;
73557;SDS011;61829;53.286;10.434;2023-12-07T11:29:24;33.67;;;16.17;;
73557;SDS011;61829;53.286;10.434;2023-12-07T11:31:51;39.53;;;17.35;;
73557;SDS011;61829;53.286;10.434;2023-12-07T11:37:05;33.05;;;15.23;;
73557;SDS011;61829;53.286;10.434;2023-12-07T11:39:43;34.17;;;16.55;;
73557;SDS011;61829;53.286;10.434;2023-12-07T11:42:16;36.75;;;17.13;;
73557;SDS011;61829;53.286;10.434;2023-12-07T11:44:47;33.42;;;16.98;;
73557;SDS011;61829;53.286;10.434;2023-12-07T11:47:24;29.60;;;15.18;;
73557;SDS011;61829;53.286;10.434;2023-12-07T11:50:00;35.22;;;15.13;;
73557;SDS011;61829;53.286;10.434;2023-12-07T11:52:39;32.75;;;15.63;;
73557;SDS011;61829;53.286;10.434;2023-12-07T11:55:06;29.58;;;14.48;;
73557;SDS011;61829;53.286;10.434;2023-12-07T11:57:32;38.17;;;17.60;;
73557;SDS011;61829;53.286;10.434;2023-12-07T11:59:59;32.50;;;16.25;;
73557;SDS011;61829;53.286;10.434;2023-12-07T12:02:25;38.10;;;19.65;;
73557;SDS011;61829;53.286;10.434;2023-12-07T12:04:51;36.33;;;19.38;;
73557;SDS011;61829;53.286;10.434;2023-12-07T12:07:19;56.08;;;27.27;;
73557;SDS011;61829;53.286;10.434;2023-12-07T12:09:55;38.80;;;19.02;;
73557;SDS011;61829;53.286;10.434;2023-12-07T12:12:22;29.90;;;15.65;;
73557;SDS011;61829;53.286;10.434;2023-12-07T12:14:51;37.42;;;18.88;;
73557;SDS011;61829;53.286;10.434;2023-12-07T12:17:29;30.52;;;14.50;;
73557;SDS011;61829;53.286;10.434;2023-12-07T12:19:57;28.50;;;14.27;;
73557;SDS011;61829;53.286;10.434;2023-12-07T12:22:39;31.13;;;16.35;;
73557;SDS011;61829;53.286;10.434;2023-12-07T12:25:12;32.47;;;15.63;;
73557;SDS011;61829;53.286;10.434;2023-12-07T12:27:39;29.60;;;14.77;;
73557;SDS011;61829;53.286;10.434;2023-12-07T12:30:05;30.40;;;14.32;;
73557;SDS011;61829;53.286;10.434;2023-12-07T12:32:43;31.15;;;14.77;;
73557;SDS011;61829;53.286;10.434;2023-12-07T12:35:09;30.77;;;15.23;;
73557;SDS011;61829;53.286;10.434;2023-12-07T12:37:44;29.60;;;14.43;;
73557;SDS011;61829;53.286;10.434;2023-12-07T12:40:11;29.50;;;13.77;;
73557;SDS011;61829;53.286;10.434;2023-12-07T12:42:47;30.73;;;15.10;;
73557;SDS011;61829;53.286;10.434;2023-12-07T12:45:23;32.00;;;15.02;;
73557;SDS011;61829;53.286;10.434;2023-12-07T12:47:59;33.25;;;15.60;;
73557;SDS011;61829;53.286;10.434;2023-12-07T12:50:35;33.08;;;15.05;;
73557;SDS011;61829;53.286;10.434;2023-12-07T12:53:06;31.48;;;15.00;;
73557;SDS011;61829;53.286;10.434;2023-12-07T12:55:37;31.33;;;15.38;;
73557;SDS011;61829;53.286;10.434;2023-12-07T12:58:10;34.03;;;15.55;;
73557;SDS011;61829;53.286;10.434;2023-12-07T13:00:39;37.50;;;17.60;;
73557;SDS011;61829;53.286;10.434;2023-12-07T13:03:06;36.85;;;16.95;;
73557;SDS011;61829;53.286;10.434;2023-12-07T13:05:34;37.40;;;18.20;;
73557;SDS011;61829;53.286;10.434;2023-12-07T13:08:09;32.75;;;16.77;;
73557;SDS011;61829;53.286;10.434;2023-12-07T13:10:35;38.28;;;17.25;;
73557;SDS011;61829;53.286;10.434;2023-12-07T13:13:02;31.88;;;15.45;;
73557;SDS011;61829;53.286;10.434;2023-12-07T13:15:31;36.90;;;15.70;;
73557;SDS011;61829;53.286;10.434;2023-12-07T13:17:59;32.70;;;15.93;;
73557;SDS011;61829;53.286;10.434;2023-12-07T13:20:27;32.97;;;15.55;;
73557;SDS011;61829;53.286;10.434;2023-12-07T13:23:04;32.03;;;15.60;;
73557;SDS011;61829;53.286;10.434;2023-12-07T13:25:39;31.60;;;15.93;;
73557;SDS011;61829;53.286;10.434;2023-12-07T13:28:07;37.30;;;16.40;;
73557;SDS011;61829;53.286;10.434;2023-12-07T13:30:34;36.95;;;15.30;;
73557;SDS011;61829;53.286;10.434;2023-12-07T13:33:01;32.30;;;15.55;;
73557;SDS011;61829;53.286;10.434;2023-12-07T13:35:29;29.63;;;14.63;;
73557;SDS011;61829;53.286;10.434;2023-12-07T13:37:56;31.65;;;15.65;;
73557;SDS011;61829;53.286;10.434;2023-12-07T13:40:23;28.63;;;14.80;;
73557;SDS011;61829;53.286;10.434;2023-12-07T13:42:52;28.73;;;14.27;;
73557;SDS011;61829;53.286;10.434;2023-12-07T13:45:22;29.42;;;14.65;;
73557;SDS011;61829;53.286;10.434;2023-12-07T13:48:08;29.20;;;15.55;;
73557;SDS011;61829;53.286;10.434;2023-12-07T13:50:46;28.23;;;14.73;;
73557;SDS011;61829;53.286;10.434;2023-12-07T13:53:24;32.72;;;15.93;;
73557;SDS011;61829;53.286;10.434;2023-12-07T13:55:50;28.15;;;15.57;;
73557;SDS011;61829;53.286;10.434;2023-12-07T13:58:17;29.65;;;14.98;;
73557;SDS011;61829;53.286;10.434;2023-12-07T14:00:43;31.33;;;15.50;;
73557;SDS011;61829;53.286;10.434;2023-12-07T14:03:12;31.77;;;16.75;;
73557;SDS011;61829;53.286;10.434;2023-12-07T14:05:38;33.58;;;16.33;;
73557;SDS011;61829;53.286;10.434;2023-12-07T14:08:07;37.03;;;17.48;;
73557;SDS011;61829;53.286;10.434;2023-12-07T14:10:34;31.65;;;16.10;;
73557;SDS011;61829;53.286;10.434;2023-12-07T14:13:00;37.28;;;18.00;;
73557;SDS011;61829;53.286;10.434;2023-12-07T14:15:26;34.85;;;16.45;;
73557;SDS011;61829;53.286;10.434;2023-12-07T14:17:53;36.15;;;16.98;;
73557;SDS011;61829;53.286;10.434;2023-12-07T14:20:19;35.97;;;16.60;;
73557;SDS011;61829;53.286;10.434;2023-12-07T14:22:49;33.30;;;16.48;;
73557;SDS011;61829;53.286;10.434;2023-12-07T14:25:18;36.33;;;16.23;;
73557;SDS011;61829;53.286;10.434;2023-12-07T14:27:44;28.90;;;14.52;;
73557;SDS011;61829;53.286;10.434;2023-12-07T14:30:10;29.48;;;15.27;;
73557;SDS011;61829;53.286;10.434;2023-12-07T14:32:37;32.17;;;15.25;;
73557;SDS011;61829;53.286;10.434;2023-12-07T14:35:03;30.17;;;14.63;;
73557;SDS011;61829;53.286;10.434;2023-12-07T14:37:30;31.77;;;14.55;;
73557;SDS011;61829;53.286;10.434;2023-12-07T14:39:56;33.60;;;15.27;;
73557;SDS011;61829;53.286;10.434;2023-12-07T14:42:24;33.45;;;15.40;;
73557;SDS011;61829;53.286;10.434;2023-12-07T14:45:01;27.38;;;14.57;;
73557;SDS011;61829;53.286;10.434;2023-12-07T14:47:34;32.70;;;15.18;;
73557;SDS011;61829;53.286;10.434;2023-12-07T14:50:11;31.35;;;14.45;;
73557;SDS011;61829;53.286;10.434;2023-12-07T14:52:49;30.60;;;14.73;;